Terminal Aerodrome Forecast
Issued by NWS Blacksburg, VA

Home | Current Version | Previous Version | Text Only | Print | Product List | Glossary On
Versions: 1 2 3 4 5 6 7 8 9 10 11 12 13 14 15 16 17 18 19 20 21 22 23 24 25 26 27
000
FTUS41 KRNK 261137
TAFDAN
TAF
KDAN 261137Z 2612/2712 00000KT P6SM OVC060
     FM261600 35007KT 6SM -RA OVC022
     FM262200 34008KT 6SM -RA OVC019
     FM270100 32012G19KT P6SM OVC035
     FM270800 32010KT P6SM BKN050=

USA.gov is the U.S. government's official web portal to all federal, state and local government web resources and services.